sensor_id;sensor_type;location;lat;lon;timestamp;pressure;altitude;pressure_sealevel;temperature
76009;BMP280;64700;52.130;21.270;2023-06-10T00:01:22;100544.41;;;25.81
76009;BMP280;64700;52.130;21.270;2023-06-10T00:03:49;100542.94;;;25.80
76009;BMP280;64700;52.130;21.270;2023-06-10T00:06:14;100556.41;;;25.83
76009;BMP280;64700;52.130;21.270;2023-06-10T00:08:40;100546.94;;;25.84
76009;BMP280;64700;52.130;21.270;2023-06-10T00:11:05;100555.38;;;25.81
76009;BMP280;64700;52.130;21.270;2023-06-10T00:13:30;100555.16;;;25.79
76009;BMP280;64700;52.130;21.270;2023-06-10T00:15:55;100546.44;;;25.80
76009;BMP280;64700;52.130;21.270;2023-06-10T00:18:20;100547.16;;;25.81
76009;BMP280;64700;52.130;21.270;2023-06-10T00:20:47;100541.69;;;25.81
76009;BMP280;64700;52.130;21.270;2023-06-10T00:23:13;100548.69;;;25.82
76009;BMP280;64700;52.130;21.270;2023-06-10T00:25:39;100543.69;;;25.80
76009;BMP280;64700;52.130;21.270;2023-06-10T00:28:04;100541.44;;;25.79
76009;BMP280;64700;52.130;21.270;2023-06-10T00:30:30;100542.47;;;25.81
76009;BMP280;64700;52.130;21.270;2023-06-10T00:32:55;100530.25;;;25.82
76009;BMP280;64700;52.130;21.270;2023-06-10T00:35:20;100541.44;;;25.84
76009;BMP280;64700;52.130;21.270;2023-06-10T00:37:46;100539.22;;;25.83
76009;BMP280;64700;52.130;21.270;2023-06-10T00:40:11;100545.19;;;25.81
76009;BMP280;64700;52.130;21.270;2023-06-10T00:42:36;100546.44;;;25.80
76009;BMP280;64700;52.130;21.270;2023-06-10T00:45:03;100544.41;;;25.81
76009;BMP280;64700;52.130;21.270;2023-06-10T00:47:28;100541.44;;;25.79
76009;BMP280;64700;52.130;21.270;2023-06-10T00:49:54;100542.19;;;25.79
76009;BMP280;64700;52.130;21.270;2023-06-10T00:52:19;100544.41;;;25.81
76009;BMP280;64700;52.130;21.270;2023-06-10T00:54:46;100551.16;;;25.80
76009;BMP280;64700;52.130;21.270;2023-06-10T00:57:11;100545.94;;;25.82
76009;BMP280;64700;52.130;21.270;2023-06-10T00:59:38;100543.69;;;25.80
76009;BMP280;64700;52.130;21.270;2023-06-10T01:02:03;100555.16;;;25.79
76009;BMP280;64700;52.130;21.270;2023-06-10T01:04:28;100557.41;;;25.80
76009;BMP280;64700;52.130;21.270;2023-06-10T01:12:05;100553.16;;;25.79
76009;BMP280;64700;52.130;21.270;2023-06-10T01:14:33;100556.38;;;25.78
76009;BMP280;64700;52.130;21.270;2023-06-10T01:16:59;100554.91;;;25.77
76009;BMP280;64700;52.130;21.270;2023-06-10T01:19:25;100555.16;;;25.79
76009;BMP280;64700;52.130;21.270;2023-06-10T01:21:51;100552.91;;;25.77
76009;BMP280;64700;52.130;21.270;2023-06-10T01:24:16;100558.16;;;25.75
76009;BMP280;64700;52.130;21.270;2023-06-10T01:26:43;100559.66;;;25.71
76009;BMP280;64700;52.130;21.270;2023-06-10T01:29:20;100553.44;;;25.70
76009;BMP280;64700;52.130;21.270;2023-06-10T01:34:14;100558.41;;;25.72
76009;BMP280;64700;52.130;21.270;2023-06-10T01:36:40;100566.63;;;25.72
76009;BMP280;64700;52.130;21.270;2023-06-10T01:39:06;100571.09;;;25.69
76009;BMP280;64700;52.130;21.270;2023-06-10T01:41:32;100570.63;;;25.71
76009;BMP280;64700;52.130;21.270;2023-06-10T01:43:58;100571.84;;;25.69
76009;BMP280;64700;52.130;21.270;2023-06-10T01:46:23;100572.63;;;25.70
76009;BMP280;64700;52.130;21.270;2023-06-10T01:48:49;100566.38;;;25.69
76009;BMP280;64700;52.130;21.270;2023-06-10T01:51:14;100571.84;;;25.69
76009;BMP280;64700;52.130;21.270;2023-06-10T01:53:39;100575.59;;;25.66
76009;BMP280;64700;52.130;21.270;2023-06-10T01:56:04;100566.88;;;25.68
76009;BMP280;64700;52.130;21.270;2023-06-10T01:58:30;100567.38;;;25.66
76009;BMP280;64700;52.130;21.270;2023-06-10T02:00:55;100562.16;;;25.68
76009;BMP280;64700;52.130;21.270;2023-06-10T02:03:20;100561.13;;;25.66
76009;BMP280;64700;52.130;21.270;2023-06-10T02:05:45;100567.38;;;25.66
76009;BMP280;64700;52.130;21.270;2023-06-10T02:08:11;100565.41;;;25.67
76009;BMP280;64700;52.130;21.270;2023-06-10T02:10:36;100569.88;;;25.70
76009;BMP280;64700;52.130;21.270;2023-06-10T02:13:01;100568.38;;;25.69
76009;BMP280;64700;52.130;21.270;2023-06-10T02:15:26;100569.88;;;25.70
76009;BMP280;64700;52.130;21.270;2023-06-10T02:17:52;100572.34;;;25.68
76009;BMP280;64700;52.130;21.270;2023-06-10T02:20:17;100565.09;;;25.65
76009;BMP280;64700;52.130;21.270;2023-06-10T02:22:42;100573.31;;;25.65
76009;BMP280;64700;52.130;21.270;2023-06-10T02:25:08;100565.09;;;25.65
76009;BMP280;64700;52.130;21.270;2023-06-10T02:27:33;100574.06;;;25.65
76009;BMP280;64700;52.130;21.270;2023-06-10T02:29:59;100583.53;;;25.64
76009;BMP280;64700;52.130;21.270;2023-06-10T02:32:24;100577.06;;;25.62
76009;BMP280;64700;52.130;21.270;2023-06-10T02:34:50;100583.53;;;25.64
76009;BMP280;64700;52.130;21.270;2023-06-10T02:37:15;100584.03;;;25.63
76009;BMP280;64700;52.130;21.270;2023-06-10T02:39:41;100590.00;;;25.61
76009;BMP280;64700;52.130;21.270;2023-06-10T02:42:06;100583.03;;;25.60
76009;BMP280;64700;52.130;21.270;2023-06-10T02:44:32;100596.72;;;25.60
76009;BMP280;64700;52.130;21.270;2023-06-10T02:46:57;100593.50;;;25.62
76009;BMP280;64700;52.130;21.270;2023-06-10T02:49:22;100597.75;;;25.63
76009;BMP280;64700;52.130;21.270;2023-06-10T02:51:47;100590.28;;;25.63
76009;BMP280;64700;52.130;21.270;2023-06-10T02:54:13;100597.22;;;25.64
76009;BMP280;64700;52.130;21.270;2023-06-10T02:56:38;100603.69;;;25.61
76009;BMP280;64700;52.130;21.270;2023-06-10T02:59:06;100603.19;;;25.57
76009;BMP280;64700;52.130;21.270;2023-06-10T03:01:33;100605.69;;;25.61
76009;BMP280;64700;52.130;21.270;2023-06-10T03:03:59;100595.50;;;25.61
76009;BMP280;64700;52.130;21.270;2023-06-10T03:06:25;100606.44;;;25.61
76009;BMP280;64700;52.130;21.270;2023-06-10T03:08:51;100611.44;;;25.63
76009;BMP280;64700;52.130;21.270;2023-06-10T03:11:16;100622.88;;;25.61
76009;BMP280;64700;52.130;21.270;2023-06-10T03:13:41;100618.16;;;25.62
76009;BMP280;64700;52.130;21.270;2023-06-10T03:16:06;100618.16;;;25.62
76009;BMP280;64700;52.130;21.270;2023-06-10T03:18:32;100622.88;;;25.61
76009;BMP280;64700;52.130;21.270;2023-06-10T03:20:58;100630.34;;;25.61
76009;BMP280;64700;52.130;21.270;2023-06-10T03:23:23;100625.88;;;25.63
76009;BMP280;64700;52.130;21.270;2023-06-10T03:25:48;100637.81;;;25.60
76009;BMP280;64700;52.130;21.270;2023-06-10T03:28:13;100646.28;;;25.62
76009;BMP280;64700;52.130;21.270;2023-06-10T03:30:39;100632.84;;;25.59
76009;BMP280;64700;52.130;21.270;2023-06-10T03:33:04;100632.31;;;25.60
76009;BMP280;64700;52.130;21.270;2023-06-10T03:35:30;100643.53;;;25.62
76009;BMP280;64700;52.130;21.270;2023-06-10T03:37:56;100646.28;;;25.62
76009;BMP280;64700;52.130;21.270;2023-06-10T03:40:22;100641.81;;;25.59
76009;BMP280;64700;52.130;21.270;2023-06-10T03:42:47;100639.81;;;25.60
76009;BMP280;64700;52.130;21.270;2023-06-10T03:45:12;100642.81;;;25.56
76009;BMP280;64700;52.130;21.270;2023-06-10T03:47:38;100641.78;;;25.54
76009;BMP280;64700;52.130;21.270;2023-06-10T03:50:03;100649.53;;;25.55
76009;BMP280;64700;52.130;21.270;2023-06-10T03:52:29;100654.25;;;25.60
76009;BMP280;64700;52.130;21.270;2023-06-10T03:54:54;100652.50;;;25.63
76009;BMP280;64700;52.130;21.270;2023-06-10T03:57:20;100651.75;;;25.62
76009;BMP280;64700;52.130;21.270;2023-06-10T03:59:45;100660.72;;;25.63
76009;BMP280;64700;52.130;21.270;2023-06-10T04:02:10;100658.00;;;25.63
76009;BMP280;64700;52.130;21.270;2023-06-10T04:04:35;100651.75;;;25.62
76009;BMP280;64700;52.130;21.270;2023-06-10T04:07:02;100652.50;;;25.63
76009;BMP280;64700;52.130;21.270;2023-06-10T04:09:28;100653.75;;;25.62
76009;BMP280;64700;52.130;21.270;2023-06-10T04:11:53;100646.03;;;25.60
76009;BMP280;64700;52.130;21.270;2023-06-10T04:14:18;100655.00;;;25.61
76009;BMP280;64700;52.130;21.270;2023-06-10T04:16:43;100648.75;;;25.60
76009;BMP280;64700;52.130;21.270;2023-06-10T04:19:09;100649.50;;;25.61
76009;BMP280;64700;52.130;21.270;2023-06-10T04:21:34;100656.50;;;25.62
76009;BMP280;64700;52.130;21.270;2023-06-10T04:24:00;100661.22;;;25.61
76009;BMP280;64700;52.130;21.270;2023-06-10T04:26:26;100654.50;;;25.62
76009;BMP280;64700;52.130;21.270;2023-06-10T04:28:52;100654.50;;;25.62
76009;BMP280;64700;52.130;21.270;2023-06-10T04:31:17;100658.47;;;25.61
76009;BMP280;64700;52.130;21.270;2023-06-10T04:33:42;100656.50;;;25.62
76009;BMP280;64700;52.130;21.270;2023-06-10T04:36:07;100651.75;;;25.62
76009;BMP280;64700;52.130;21.270;2023-06-10T04:38:33;100654.50;;;25.62
76009;BMP280;64700;52.130;21.270;2023-06-10T04:40:58;100655.00;;;25.61
76009;BMP280;64700;52.130;21.270;2023-06-10T04:43:23;100656.50;;;25.62
76009;BMP280;64700;52.130;21.270;2023-06-10T04:45:49;100665.94;;;25.61
76009;BMP280;64700;52.130;21.270;2023-06-10T04:48:14;100661.97;;;25.62
76009;BMP280;64700;52.130;21.270;2023-06-10T04:50:40;100659.97;;;25.62
76009;BMP280;64700;52.130;21.270;2023-06-10T04:53:05;100661.97;;;25.62
76009;BMP280;64700;52.130;21.270;2023-06-10T04:55:32;100665.69;;;25.64
76009;BMP280;64700;52.130;21.270;2023-06-10T04:57:58;100663.47;;;25.63
76009;BMP280;64700;52.130;21.270;2023-06-10T05:00:23;100669.69;;;25.63
76009;BMP280;64700;52.130;21.270;2023-06-10T05:02:48;100668.19;;;25.62
76009;BMP280;64700;52.130;21.270;2023-06-10T05:05:17;100669.44;;;25.61
76009;BMP280;64700;52.130;21.270;2023-06-10T05:07:42;100673.69;;;25.62
76009;BMP280;64700;52.130;21.270;2023-06-10T05:10:07;100677.66;;;25.61
76009;BMP280;64700;52.130;21.270;2023-06-10T05:12:33;100676.41;;;25.62
76009;BMP280;64700;52.130;21.270;2023-06-10T05:14:58;100676.91;;;25.61
76009;BMP280;64700;52.130;21.270;2023-06-10T05:17:23;100678.41;;;25.62
76009;BMP280;64700;52.130;21.270;2023-06-10T05:19:50;100680.66;;;25.63
76009;BMP280;64700;52.130;21.270;2023-06-10T05:22:15;100677.91;;;25.63
76009;BMP280;64700;52.130;21.270;2023-06-10T05:24:41;100675.91;;;25.64
76009;BMP280;64700;52.130;21.270;2023-06-10T05:27:06;100678.16;;;25.60
76009;BMP280;64700;52.130;21.270;2023-06-10T05:29:31;100677.41;;;25.65
76009;BMP280;64700;52.130;21.270;2023-06-10T05:31:57;100685.91;;;25.67
76009;BMP280;64700;52.130;21.270;2023-06-10T05:34:25;100682.44;;;25.66
76009;BMP280;64700;52.130;21.270;2023-06-10T05:36:50;100691.09;;;25.65
76009;BMP280;64700;52.130;21.270;2023-06-10T05:39:15;100691.09;;;25.65
76009;BMP280;64700;52.130;21.270;2023-06-10T05:41:40;100679.69;;;25.66
76009;BMP280;64700;52.130;21.270;2023-06-10T05:44:06;100685.63;;;25.65
76009;BMP280;64700;52.130;21.270;2023-06-10T05:46:31;100686.38;;;25.65
76009;BMP280;64700;52.130;21.270;2023-06-10T05:48:56;100693.09;;;25.64
76009;BMP280;64700;52.130;21.270;2023-06-10T05:51:21;100681.91;;;25.68
76009;BMP280;64700;52.130;21.270;2023-06-10T05:53:46;100684.38;;;25.66
76009;BMP280;64700;52.130;21.270;2023-06-10T05:56:13;100689.88;;;25.66
76009;BMP280;64700;52.130;21.270;2023-06-10T05:58:38;100694.13;;;25.67
76009;BMP280;64700;52.130;21.270;2023-06-10T06:01:03;100687.91;;;25.66
76009;BMP280;64700;52.130;21.270;2023-06-10T06:03:28;100691.63;;;25.69
76009;BMP280;64700;52.130;21.270;2023-06-10T06:05:54;100685.66;;;25.71
76009;BMP280;64700;52.130;21.270;2023-06-10T06:08:19;100688.91;;;25.69
76009;BMP280;64700;52.130;21.270;2023-06-10T06:10:45;100680.19;;;25.71
76009;BMP280;64700;52.130;21.270;2023-06-10T06:13:10;100684.16;;;25.69
76009;BMP280;64700;52.130;21.270;2023-06-10T06:15:35;100692.38;;;25.69
76009;BMP280;64700;52.130;21.270;2023-06-10T06:18:00;100679.19;;;25.68
76009;BMP280;64700;52.130;21.270;2023-06-10T06:20:25;100679.94;;;25.68
76009;BMP280;64700;52.130;21.270;2023-06-10T06:22:50;100679.44;;;25.70
76009;BMP280;64700;52.130;21.270;2023-06-10T06:25:16;100684.66;;;25.68
76009;BMP280;64700;52.130;21.270;2023-06-10T06:27:41;100677.44;;;25.71
76009;BMP280;64700;52.130;21.270;2023-06-10T06:30:06;100675.44;;;25.71
76009;BMP280;64700;52.130;21.270;2023-06-10T06:32:31;100679.44;;;25.70
76009;BMP280;64700;52.130;21.270;2023-06-10T06:34:57;100674.19;;;25.72
76009;BMP280;64700;52.130;21.270;2023-06-10T06:37:25;100682.41;;;25.72
76009;BMP280;64700;52.130;21.270;2023-06-10T06:39:51;100671.97;;;25.71
76009;BMP280;64700;52.130;21.270;2023-06-10T06:42:16;100677.44;;;25.71
76009;BMP280;64700;52.130;21.270;2023-06-10T06:44:41;100684.16;;;25.69
76009;BMP280;64700;52.130;21.270;2023-06-10T06:47:07;100686.38;;;25.71
76009;BMP280;64700;52.130;21.270;2023-06-10T06:49:32;100680.91;;;25.65
76009;BMP280;64700;52.130;21.270;2023-06-10T06:51:57;100695.38;;;25.77
76009;BMP280;64700;52.130;21.270;2023-06-10T06:54:23;100690.63;;;25.72
76009;BMP280;64700;52.130;21.270;2023-06-10T06:56:48;100696.81;;;25.61
76009;BMP280;64700;52.130;21.270;2023-06-10T06:59:13;100696.56;;;25.65
76009;BMP280;64700;52.130;21.270;2023-06-10T07:01:39;100690.88;;;25.63
76009;BMP280;64700;52.130;21.270;2023-06-10T07:04:04;100694.59;;;25.65
76009;BMP280;64700;52.130;21.270;2023-06-10T07:06:29;100696.34;;;25.63
76009;BMP280;64700;52.130;21.270;2023-06-10T07:08:55;100704.56;;;25.63
76009;BMP280;64700;52.130;21.270;2023-06-10T07:11:20;100703.31;;;25.53
76009;BMP280;64700;52.130;21.270;2023-06-10T07:13:46;100698.09;;;25.66
76009;BMP280;64700;52.130;21.270;2023-06-10T07:16:12;100693.63;;;25.68
76009;BMP280;64700;52.130;21.270;2023-06-10T07:18:37;100702.03;;;25.54
76009;BMP280;64700;52.130;21.270;2023-06-10T07:21:02;100702.25;;;25.45
76009;BMP280;64700;52.130;21.270;2023-06-10T07:23:27;100700.03;;;25.49
76009;BMP280;64700;52.130;21.270;2023-06-10T07:25:52;100700.81;;;25.55
76009;BMP280;64700;52.130;21.270;2023-06-10T07:28:18;100706.03;;;25.64
76009;BMP280;64700;52.130;21.270;2023-06-10T07:30:43;100705.53;;;25.54
76009;BMP280;64700;52.130;21.270;2023-06-10T07:33:08;100712.97;;;25.43
76009;BMP280;64700;52.130;21.270;2023-06-10T07:35:35;100709.97;;;25.41
76009;BMP280;64700;52.130;21.270;2023-06-10T07:38:00;100713.22;;;25.39
76009;BMP280;64700;52.130;21.270;2023-06-10T07:40:25;100709.25;;;25.46
76009;BMP280;64700;52.130;21.270;2023-06-10T07:42:50;100703.00;;;25.45
76009;BMP280;64700;52.130;21.270;2023-06-10T07:45:16;100706.50;;;25.46
76009;BMP280;64700;52.130;21.270;2023-06-10T07:47:42;100706.78;;;25.53
76009;BMP280;64700;52.130;21.270;2023-06-10T07:50:07;100707.28;;;25.63
76009;BMP280;64700;52.130;21.270;2023-06-10T07:52:33;100703.06;;;25.62
76009;BMP280;64700;52.130;21.270;2023-06-10T07:54:58;100708.03;;;25.58
76009;BMP280;64700;52.130;21.270;2023-06-10T07:57:23;100720.72;;;25.61
76009;BMP280;64700;52.130;21.270;2023-06-10T07:59:49;100724.25;;;25.67
76009;BMP280;64700;52.130;21.270;2023-06-10T08:02:14;100726.97;;;25.56
76009;BMP280;64700;52.130;21.270;2023-06-10T08:04:39;100717.97;;;25.50
76009;BMP280;64700;52.130;21.270;2023-06-10T08:07:06;100716.25;;;25.52
76009;BMP280;64700;52.130;21.270;2023-06-10T08:09:31;100718.97;;;25.58
76009;BMP280;64700;52.130;21.270;2023-06-10T08:11:56;100718.72;;;25.61
76009;BMP280;64700;52.130;21.270;2023-06-10T08:14:21;100721.47;;;25.61
76009;BMP280;64700;52.130;21.270;2023-06-10T08:16:46;100716.25;;;25.58
76009;BMP280;64700;52.130;21.270;2023-06-10T08:19:12;100720.69;;;25.39
76009;BMP280;64700;52.130;21.270;2023-06-10T08:21:37;100710.72;;;25.41
76009;BMP280;64700;52.130;21.270;2023-06-10T08:24:04;100725.91;;;25.48
76009;BMP280;64700;52.130;21.270;2023-06-10T08:26:29;100732.41;;;25.50
76009;BMP280;64700;52.130;21.270;2023-06-10T08:28:55;100718.97;;;25.58
76009;BMP280;64700;52.130;21.270;2023-06-10T08:31:21;100714.00;;;25.62
76009;BMP280;64700;52.130;21.270;2023-06-10T08:33:46;100720.44;;;25.42
76009;BMP280;64700;52.130;21.270;2023-06-10T08:36:12;100727.84;;;25.25
76009;BMP280;64700;52.130;21.270;2023-06-10T08:38:37;100729.16;;;25.46
76009;BMP280;64700;52.130;21.270;2023-06-10T08:41:02;100723.72;;;25.57
76009;BMP280;64700;52.130;21.270;2023-06-10T08:45:55;100726.25;;;25.72
76009;BMP280;64700;52.130;21.270;2023-06-10T08:48:42;100717.09;;;26.20
76009;BMP280;64700;52.130;21.270;2023-06-10T08:51:08;100711.88;;;26.33
76009;BMP280;64700;52.130;21.270;2023-06-10T08:53:34;100728.81;;;26.42
76009;BMP280;64700;52.130;21.270;2023-06-10T08:56:01;100716.56;;;26.38
76009;BMP280;64700;52.130;21.270;2023-06-10T08:58:27;100712.59;;;26.44
76009;BMP280;64700;52.130;21.270;2023-06-10T09:00:52;100720.31;;;26.51
76009;BMP280;64700;52.130;21.270;2023-06-10T09:03:18;100733.53;;;26.58
76009;BMP280;64700;52.130;21.270;2023-06-10T09:05:43;100724.25;;;26.73
76009;BMP280;64700;52.130;21.270;2023-06-10T09:08:09;100734.00;;;26.74
76009;BMP280;64700;52.130;21.270;2023-06-10T09:10:34;100724.22;;;26.89
76009;BMP280;64700;52.130;21.270;2023-06-10T09:12:59;100719.69;;;27.03
76009;BMP280;64700;52.130;21.270;2023-06-10T09:15:24;100729.38;;;27.15
76009;BMP280;64700;52.130;21.270;2023-06-10T09:17:50;100712.41;;;27.17
76009;BMP280;64700;52.130;21.270;2023-06-10T09:20:16;100720.97;;;26.91
76009;BMP280;64700;52.130;21.270;2023-06-10T09:22:42;100718.47;;;26.93
76009;BMP280;64700;52.130;21.270;2023-06-10T09:25:08;100729.63;;;27.12
76009;BMP280;64700;52.130;21.270;2023-06-10T09:27:46;100724.56;;;27.32
76009;BMP280;64700;52.130;21.270;2023-06-10T09:30:35;100733.63;;;27.16
76009;BMP280;64700;52.130;21.270;2023-06-10T09:33:01;100737.38;;;27.13
76009;BMP280;64700;52.130;21.270;2023-06-10T09:35:26;100744.72;;;26.77
76009;BMP280;64700;52.130;21.270;2023-06-10T09:37:52;100723.78;;;26.74
76009;BMP280;64700;52.130;21.270;2023-06-10T09:40:18;100726.78;;;26.65
76009;BMP280;64700;52.130;21.270;2023-06-10T09:42:43;100729.53;;;26.71
76009;BMP280;64700;52.130;21.270;2023-06-10T09:45:08;100731.75;;;26.72
76009;BMP280;64700;52.130;21.270;2023-06-10T09:47:33;100735.72;;;26.77
76009;BMP280;64700;52.130;21.270;2023-06-10T09:49:58;100739.19;;;26.83
76009;BMP280;64700;52.130;21.270;2023-06-10T09:52:24;100732.97;;;26.88
76009;BMP280;64700;52.130;21.270;2023-06-10T09:54:53;100734.75;;;26.69
76009;BMP280;64700;52.130;21.270;2023-06-10T09:57:19;100728.00;;;26.81
76009;BMP280;64700;52.130;21.270;2023-06-10T09:59:45;100742.16;;;26.96
76009;BMP280;64700;52.130;21.270;2023-06-10T10:02:14;100736.44;;;26.83
76009;BMP280;64700;52.130;21.270;2023-06-10T10:04:39;100729.75;;;26.78
76009;BMP280;64700;52.130;21.270;2023-06-10T10:07:05;100738.47;;;26.77
76009;BMP280;64700;52.130;21.270;2023-06-10T10:09:32;100724.97;;;26.79
76009;BMP280;64700;52.130;21.270;2023-06-10T10:11:57;100720.50;;;26.81
76009;BMP280;64700;52.130;21.270;2023-06-10T10:14:22;100719.75;;;26.86
76009;BMP280;64700;52.130;21.270;2023-06-10T10:16:48;100721.72;;;26.91
76009;BMP280;64700;52.130;21.270;2023-06-10T10:19:16;100724.00;;;26.82
76009;BMP280;64700;52.130;21.270;2023-06-10T10:21:44;100722.00;;;26.88
76009;BMP280;64700;52.130;21.270;2023-06-10T10:24:16;100717.22;;;26.88
76009;BMP280;64700;52.130;21.270;2023-06-10T10:26:42;100721.25;;;26.82
76009;BMP280;64700;52.130;21.270;2023-06-10T10:29:16;100721.50;;;26.78
76009;BMP280;64700;52.130;21.270;2023-06-10T10:31:44;100726.22;;;26.83
76009;BMP280;64700;52.130;21.270;2023-06-10T10:34:15;100727.00;;;26.78
76009;BMP280;64700;52.130;21.270;2023-06-10T10:36:42;100734.47;;;26.78
76009;BMP280;64700;52.130;21.270;2023-06-10T10:39:08;100728.22;;;26.83
76009;BMP280;64700;52.130;21.270;2023-06-10T10:41:34;100733.72;;;26.77
76009;BMP280;64700;52.130;21.270;2023-06-10T10:44:01;100729.22;;;26.80
76009;BMP280;64700;52.130;21.270;2023-06-10T10:46:26;100725.28;;;26.75
76009;BMP280;64700;52.130;21.270;2023-06-10T10:48:52;100729.22;;;26.80
76009;BMP280;64700;52.130;21.270;2023-06-10T10:51:17;100738.44;;;26.82
76009;BMP280;64700;52.130;21.270;2023-06-10T10:53:43;100732.22;;;26.82
76009;BMP280;64700;52.130;21.270;2023-06-10T10:58:37;100724.00;;;26.82
76009;BMP280;64700;52.130;21.270;2023-06-10T11:01:10;100728.97;;;26.83
76009;BMP280;64700;52.130;21.270;2023-06-10T11:03:41;100724.72;;;26.82
76009;BMP280;64700;52.130;21.270;2023-06-10T11:06:11;100725.25;;;26.81
76009;BMP280;64700;52.130;21.270;2023-06-10T11:11:26;100723.47;;;26.89
76009;BMP280;64700;52.130;21.270;2023-06-10T11:16:29;100708.25;;;26.93
76009;BMP280;64700;52.130;21.270;2023-06-10T11:18:55;100715.75;;;26.87
76009;BMP280;64700;52.130;21.270;2023-06-10T11:21:20;100716.22;;;26.97
76009;BMP280;64700;52.130;21.270;2023-06-10T11:23:45;100715.47;;;26.96
76009;BMP280;64700;52.130;21.270;2023-06-10T11:28:39;100711.75;;;26.88
76009;BMP280;64700;52.130;21.270;2023-06-10T11:31:04;100730.72;;;26.86
76009;BMP280;64700;52.130;21.270;2023-06-10T11:33:29;100726.22;;;26.83
76009;BMP280;64700;52.130;21.270;2023-06-10T11:35:56;100711.56;;;26.64
76009;BMP280;64700;52.130;21.270;2023-06-10T11:38:21;100719.03;;;26.63
76009;BMP280;64700;52.130;21.270;2023-06-10T11:40:49;100717.00;;;26.70
76009;BMP280;64700;52.130;21.270;2023-06-10T11:43:16;100720.53;;;26.70
76009;BMP280;64700;52.130;21.270;2023-06-10T11:45:41;100728.25;;;26.66
76009;BMP280;64700;52.130;21.270;2023-06-10T11:48:07;100724.03;;;26.59
76009;BMP280;64700;52.130;21.270;2023-06-10T11:50:32;100723.03;;;26.62
76009;BMP280;64700;52.130;21.270;2023-06-10T11:52:58;100728.50;;;26.62
76009;BMP280;64700;52.130;21.270;2023-06-10T11:55:24;100724.50;;;26.86
76009;BMP280;64700;52.130;21.270;2023-06-10T11:57:50;100718.03;;;26.78
76009;BMP280;64700;52.130;21.270;2023-06-10T12:00:22;100714.91;;;27.09
76009;BMP280;64700;52.130;21.270;2023-06-10T12:02:54;100717.44;;;27.07
76009;BMP280;64700;52.130;21.270;2023-06-10T12:05:20;100720.19;;;26.96
76009;BMP280;64700;52.130;21.270;2023-06-10T12:07:45;100719.91;;;27.16
76009;BMP280;64700;52.130;21.270;2023-06-10T12:10:10;100721.38;;;27.17
76009;BMP280;64700;52.130;21.270;2023-06-10T12:12:35;100715.34;;;27.24
76009;BMP280;64700;52.130;21.270;2023-06-10T12:15:01;100718.06;;;27.30
76009;BMP280;64700;52.130;21.270;2023-06-10T12:19:55;100725.38;;;27.10
76009;BMP280;64700;52.130;21.270;2023-06-10T12:22:20;100708.38;;;27.23
76009;BMP280;64700;52.130;21.270;2023-06-10T12:25:06;100712.13;;;27.20
76009;BMP280;64700;52.130;21.270;2023-06-10T12:27:32;100715.41;;;27.13
76009;BMP280;64700;52.130;21.270;2023-06-10T12:29:58;100707.94;;;27.08
76009;BMP280;64700;52.130;21.270;2023-06-10T12:32:41;100713.19;;;27.06
76009;BMP280;64700;52.130;21.270;2023-06-10T12:35:07;100715.16;;;27.11
76009;BMP280;64700;52.130;21.270;2023-06-10T12:37:33;100715.69;;;26.98
76009;BMP280;64700;52.130;21.270;2023-06-10T12:40:02;100712.47;;;27.00
76009;BMP280;64700;52.130;21.270;2023-06-10T12:42:28;100713.69;;;27.04
76009;BMP280;64700;52.130;21.270;2023-06-10T12:44:54;100704.19;;;27.05
76009;BMP280;64700;52.130;21.270;2023-06-10T12:47:21;100712.44;;;27.05
76009;BMP280;64700;52.130;21.270;2023-06-10T12:49:53;100697.25;;;26.93
76009;BMP280;64700;52.130;21.270;2023-06-10T12:52:19;100700.47;;;27.03
76009;BMP280;64700;52.130;21.270;2023-06-10T12:54:44;100691.47;;;27.08
76009;BMP280;64700;52.130;21.270;2023-06-10T12:57:09;100692.19;;;27.20
76009;BMP280;64700;52.130;21.270;2023-06-10T12:59:35;100688.19;;;27.15
76009;BMP280;64700;52.130;21.270;2023-06-10T13:02:00;100681.66;;;27.24
76009;BMP280;64700;52.130;21.270;2023-06-10T13:04:26;100682.72;;;27.09
76009;BMP280;64700;52.130;21.270;2023-06-10T13:06:51;100683.47;;;27.16
76009;BMP280;64700;52.130;21.270;2023-06-10T13:09:17;100674.75;;;27.06
76009;BMP280;64700;52.130;21.270;2023-06-10T13:11:42;100683.31;;;26.91
76009;BMP280;64700;52.130;21.270;2023-06-10T13:14:08;100668.56;;;26.94
76009;BMP280;64700;52.130;21.270;2023-06-10T13:16:33;100680.56;;;26.91
76009;BMP280;64700;52.130;21.270;2023-06-10T13:18:58;100674.84;;;26.84
76009;BMP280;64700;52.130;21.270;2023-06-10T13:21:24;100677.81;;;26.91
76009;BMP280;64700;52.130;21.270;2023-06-10T13:23:50;100677.09;;;26.85
76009;BMP280;64700;52.130;21.270;2023-06-10T13:26:16;100675.06;;;26.91
76009;BMP280;64700;52.130;21.270;2023-06-10T13:28:42;100662.06;;;26.92
76009;BMP280;64700;52.130;21.270;2023-06-10T13:31:07;100671.25;;;27.05
76009;BMP280;64700;52.130;21.270;2023-06-10T13:33:32;100673.88;;;27.28
76009;BMP280;64700;52.130;21.270;2023-06-10T13:35:57;100658.97;;;27.23
76009;BMP280;64700;52.130;21.270;2023-06-10T13:38:23;100679.44;;;27.11
76009;BMP280;64700;52.130;21.270;2023-06-10T13:40:48;100684.19;;;27.10
76009;BMP280;64700;52.130;21.270;2023-06-10T13:43:13;100674.56;;;26.93
76009;BMP280;64700;52.130;21.270;2023-06-10T13:45:38;100663.28;;;27.02
76009;BMP280;64700;52.130;21.270;2023-06-10T13:48:03;100672.28;;;27.02
76009;BMP280;64700;52.130;21.270;2023-06-10T13:50:30;100667.31;;;27.01
76009;BMP280;64700;52.130;21.270;2023-06-10T13:52:55;100677.50;;;27.06
76009;BMP280;64700;52.130;21.270;2023-06-10T13:55:21;100685.03;;;27.00
76009;BMP280;64700;52.130;21.270;2023-06-10T13:57:46;100680.56;;;26.86
76009;BMP280;64700;52.130;21.270;2023-06-10T14:00:12;100679.75;;;27.02